createdAt,value
2023-02-15T00:01:56.198Z,-0.98
2023-02-15T00:04:24.462Z,-0.98
2023-02-15T00:06:52.444Z,-0.97
2023-02-15T00:09:19.458Z,-0.97
2023-02-15T00:11:51.730Z,-0.97
2023-02-15T00:14:21.819Z,-0.99
2023-02-15T00:16:50.052Z,-1.00
2023-02-15T00:19:18.334Z,-1.00
2023-02-15T00:21:47.898Z,-0.98
2023-02-15T00:24:17.112Z,-0.97
2023-02-15T00:26:44.601Z,-0.96
2023-02-15T00:29:11.948Z,-0.94
2023-02-15T00:31:39.485Z,-0.92
2023-02-15T00:34:20.892Z,-0.90
2023-02-15T00:36:48.455Z,-0.89
2023-02-15T00:39:16.399Z,-0.87
2023-02-15T00:41:45.348Z,-0.87
2023-02-15T00:44:12.872Z,-0.85
2023-02-15T00:46:40.420Z,-0.83
2023-02-15T00:49:10.450Z,-0.81
2023-02-15T00:51:40.778Z,-0.79
2023-02-15T00:54:09.737Z,-0.79
2023-02-15T00:56:38.101Z,-0.79
2023-02-15T00:59:09.719Z,-0.78
2023-02-15T01:01:37.735Z,-0.77
2023-02-15T01:04:05.061Z,-0.77
2023-02-15T01:06:32.783Z,-0.79
2023-02-15T01:09:00.122Z,-0.80
2023-02-15T01:11:27.547Z,-0.83
2023-02-15T01:13:56.688Z,-0.85
2023-02-15T01:16:25.324Z,-0.85
2023-02-15T01:18:57.665Z,-0.86
2023-02-15T01:21:25.789Z,-0.86
2023-02-15T01:23:53.312Z,-0.88
2023-02-15T01:26:22.038Z,-0.89
2023-02-15T01:28:49.356Z,-0.90
2023-02-15T01:31:18.512Z,-0.91
2023-02-15T01:33:47.048Z,-0.92
2023-02-15T01:36:14.790Z,-0.93
2023-02-15T01:38:42.244Z,-0.94
2023-02-15T01:41:26.715Z,-0.95
2023-02-15T01:43:58.635Z,-0.94
2023-02-15T01:46:37.787Z,-0.94
2023-02-15T01:49:13.853Z,-0.93
2023-02-15T01:51:41.164Z,-0.93
2023-02-15T01:54:12.430Z,-0.93
2023-02-15T01:56:39.598Z,-0.92
2023-02-15T01:59:09.905Z,-0.91
2023-02-15T02:01:37.156Z,-0.90
2023-02-15T02:04:10.423Z,-0.90
2023-02-15T02:06:38.554Z,-0.90
2023-02-15T02:09:09.494Z,-0.91
2023-02-15T02:11:36.730Z,-0.92
2023-02-15T02:14:04.487Z,-0.92
2023-02-15T02:16:45.315Z,-0.92
2023-02-15T02:19:28.074Z,-0.92
2023-02-15T02:22:08.000Z,-0.91
2023-02-15T02:24:54.383Z,-0.93
2023-02-15T02:27:27.069Z,-0.95
2023-02-15T02:30:03.337Z,-0.97
2023-02-15T02:32:30.675Z,-1.01
2023-02-15T02:35:44.069Z,-1.05
2023-02-15T02:38:37.364Z,-1.10
2023-02-15T02:41:16.740Z,-1.14
2023-02-15T02:43:56.138Z,-1.16
2023-02-15T02:46:29.401Z,-1.19
2023-02-15T02:48:56.379Z,-1.19
2023-02-15T02:51:25.050Z,-1.19
2023-02-15T02:53:53.869Z,-1.18
2023-02-15T02:56:39.341Z,-1.18
2023-02-15T02:59:18.783Z,-1.18
2023-02-15T03:01:52.720Z,-1.17
2023-02-15T03:04:22.702Z,-1.17
2023-02-15T03:06:58.976Z,-1.16
2023-02-15T03:09:44.077Z,-1.14
2023-02-15T03:12:25.269Z,-1.12
2023-02-15T03:15:20.107Z,-1.13
2023-02-15T03:17:49.692Z,-1.12
2023-02-15T03:20:26.465Z,-1.13
2023-02-15T03:22:58.158Z,-1.13
2023-02-15T03:25:34.617Z,-1.12
2023-02-15T03:28:07.816Z,-1.11
2023-02-15T03:30:35.790Z,-1.11
2023-02-15T03:33:03.208Z,-1.11
2023-02-15T03:36:09.420Z,-1.12
2023-02-15T03:38:59.784Z,-1.12
2023-02-15T03:41:30.042Z,-1.14
2023-02-15T03:44:07.244Z,-1.15
2023-02-15T03:46:43.205Z,-1.15
2023-02-15T03:49:45.501Z,-1.15
2023-02-15T03:52:12.808Z,-1.16
2023-02-15T03:54:42.658Z,-1.17
2023-02-15T03:57:34.575Z,-1.16
2023-02-15T04:00:25.716Z,-1.17
2023-02-15T04:03:27.009Z,-1.16
2023-02-15T04:05:54.914Z,-1.16
2023-02-15T04:08:42.066Z,-1.16
2023-02-15T04:11:11.836Z,-1.15
2023-02-15T04:13:39.730Z,-1.15
2023-02-15T04:16:08.124Z,-1.16
2023-02-15T04:18:59.255Z,-1.16
2023-02-15T04:21:46.947Z,-1.16
2023-02-15T04:24:33.075Z,-1.17
2023-02-15T04:27:00.510Z,-1.16
2023-02-15T04:29:27.847Z,-1.15
2023-02-15T04:31:56.207Z,-1.15
2023-02-15T04:34:23.338Z,-1.14
2023-02-15T04:36:50.872Z,-1.15
2023-02-15T04:39:18.467Z,-1.14
2023-02-15T04:41:45.992Z,-1.15
2023-02-15T04:44:14.298Z,-1.14
2023-02-15T04:46:41.353Z,-1.15
2023-02-15T04:49:09.032Z,-1.14
2023-02-15T04:51:36.373Z,-1.14
2023-02-15T04:54:04.872Z,-1.15
2023-02-15T04:56:34.882Z,-1.16
2023-02-15T04:59:02.951Z,-1.17
2023-02-15T05:01:30.418Z,-1.18
2023-02-15T05:03:57.804Z,-1.18
2023-02-15T05:06:24.862Z,-1.18
2023-02-15T05:08:51.923Z,-1.16
2023-02-15T05:11:19.093Z,-1.16
2023-02-15T05:13:46.214Z,-1.15
2023-02-15T05:16:15.247Z,-1.13
2023-02-15T05:18:42.570Z,-1.12
2023-02-15T05:21:09.890Z,-1.10
2023-02-15T05:23:37.090Z,-1.08
2023-02-15T05:26:22.817Z,-1.06
2023-02-15T05:28:49.827Z,-1.05
2023-02-15T05:31:18.416Z,-1.04
2023-02-15T05:33:46.700Z,-1.02
2023-02-15T05:36:14.037Z,-1.00
2023-02-15T05:38:41.212Z,-0.98
2023-02-15T05:41:09.422Z,-0.97
2023-02-15T05:43:38.891Z,-0.94
2023-02-15T05:46:06.138Z,-0.94
2023-02-15T05:48:33.447Z,-0.92
2023-02-15T05:51:08.761Z,-0.91
2023-02-15T05:53:37.430Z,-0.90
2023-02-15T05:56:06.386Z,-0.90
2023-02-15T05:58:38.555Z,-0.89
2023-02-15T06:01:13.623Z,-0.89
2023-02-15T06:03:40.967Z,-0.87
2023-02-15T06:06:08.573Z,-0.83
2023-02-15T06:08:36.293Z,-0.80
2023-02-15T06:11:04.099Z,-0.78
2023-02-15T06:13:32.441Z,-0.75
2023-02-15T06:16:01.004Z,-0.74
2023-02-15T06:18:29.394Z,-0.75
2023-02-15T06:20:56.422Z,-0.73
2023-02-15T06:23:24.208Z,-0.72
2023-02-15T06:25:51.611Z,-0.70
2023-02-15T06:28:20.218Z,-0.67
2023-02-15T06:30:47.442Z,-0.65
2023-02-15T06:33:15.682Z,-0.63
2023-02-15T06:35:42.732Z,-0.61
2023-02-15T06:38:10.030Z,-0.59
2023-02-15T06:40:37.230Z,-0.59
2023-02-15T06:43:08.854Z,-0.57
2023-02-15T06:45:36.306Z,-0.56
2023-02-15T06:48:03.522Z,-0.55
2023-02-15T06:50:31.117Z,-0.55
2023-02-15T06:52:58.897Z,-0.54
2023-02-15T06:55:26.138Z,-0.53
2023-02-15T06:57:54.264Z,-0.51
2023-02-15T07:00:23.740Z,-0.49
2023-02-15T07:02:58.645Z,-0.47
2023-02-15T07:05:32.894Z,-0.44
2023-02-15T07:08:02.295Z,-0.41
2023-02-15T07:10:29.824Z,-0.37
2023-02-15T07:12:57.170Z,-0.34
2023-02-15T07:15:26.034Z,-0.33
2023-02-15T07:17:53.658Z,-0.31
2023-02-15T07:20:22.159Z,-0.28
2023-02-15T07:22:50.334Z,-0.24
2023-02-15T07:25:21.184Z,-0.21
2023-02-15T07:27:48.829Z,-0.19
2023-02-15T07:30:17.320Z,-0.15
2023-02-15T07:33:05.708Z,-0.12
2023-02-15T07:35:34.665Z,-0.09
2023-02-15T07:38:01.964Z,-0.05
2023-02-15T07:40:29.498Z,-0.04
2023-02-15T07:42:58.557Z,-0.04
2023-02-15T07:45:26.173Z,-0.02
2023-02-15T07:47:56.600Z,0.00
2023-02-15T07:50:24.062Z,-0.02
2023-02-15T07:52:51.911Z,-0.03
2023-02-15T07:55:20.113Z,-0.02
2023-02-15T07:57:48.039Z,0.01
2023-02-15T08:00:17.288Z,0.00
2023-02-15T08:02:49.615Z,-0.01
2023-02-15T08:05:18.882Z,-0.03
2023-02-15T08:07:46.178Z,-0.02
2023-02-15T08:10:33.167Z,0.01
2023-02-15T08:13:01.234Z,0.06
2023-02-15T08:15:32.399Z,0.11
2023-02-15T08:18:00.350Z,0.18
2023-02-15T08:20:27.567Z,0.20
2023-02-15T08:22:56.321Z,0.22
2023-02-15T08:25:27.831Z,0.24
2023-02-15T08:28:04.017Z,0.23
2023-02-15T08:30:36.352Z,0.21
2023-02-15T08:33:04.296Z,0.17
2023-02-15T08:35:32.635Z,0.11
2023-02-15T08:37:59.727Z,0.06
2023-02-15T08:40:26.879Z,0.02
2023-02-15T08:42:54.214Z,-0.02
2023-02-15T08:45:22.075Z,0.01
2023-02-15T08:47:50.204Z,0.05
2023-02-15T08:50:17.695Z,0.08
2023-02-15T08:52:44.838Z,0.10
2023-02-15T08:55:11.900Z,0.11
2023-02-15T08:57:45.328Z,0.12
2023-02-15T09:00:13.774Z,0.14
2023-02-15T09:02:41.168Z,0.17
2023-02-15T09:05:08.984Z,0.21
2023-02-15T09:07:36.990Z,0.23
2023-02-15T09:10:06.042Z,0.23
2023-02-15T09:12:34.201Z,0.24
2023-02-15T09:15:06.172Z,0.27
2023-02-15T09:17:34.782Z,0.34
2023-02-15T09:20:03.197Z,0.42
2023-02-15T09:22:32.550Z,0.47
2023-02-15T09:25:00.083Z,0.53
2023-02-15T09:27:27.151Z,0.59
2023-02-15T09:29:54.504Z,0.65
2023-02-15T09:32:23.078Z,0.70
2023-02-15T09:34:51.381Z,0.74
2023-02-15T09:37:20.141Z,0.76
2023-02-15T09:39:49.136Z,0.80
2023-02-15T09:42:23.752Z,0.84
2023-02-15T09:45:09.264Z,0.88
2023-02-15T09:47:45.201Z,0.91
2023-02-15T09:50:13.368Z,0.89
2023-02-15T09:52:53.941Z,0.84
2023-02-15T09:55:26.011Z,0.77
2023-02-15T09:58:13.316Z,0.71
2023-02-15T10:00:56.112Z,0.69
2023-02-15T10:03:58.841Z,0.73
2023-02-15T10:06:47.520Z,0.72
2023-02-15T10:09:49.155Z,0.71
2023-02-15T10:12:32.924Z,0.64
2023-02-15T10:15:16.880Z,0.59
2023-02-15T10:18:07.025Z,0.60
2023-02-15T10:20:57.116Z,0.63
2023-02-15T10:23:37.787Z,0.68
2023-02-15T10:26:12.072Z,0.75
2023-02-15T10:29:09.773Z,0.73
2023-02-15T10:31:52.212Z,0.63
2023-02-15T10:34:39.728Z,0.58
2023-02-15T10:37:17.462Z,0.55
2023-02-15T10:40:06.353Z,0.55
2023-02-15T10:43:12.467Z,0.53
2023-02-15T10:46:01.628Z,0.49
2023-02-15T10:49:06.179Z,0.49
2023-02-15T10:52:02.742Z,0.49
2023-02-15T10:55:24.423Z,0.49
2023-02-15T10:57:56.170Z,0.49
2023-02-15T11:00:40.048Z,0.43
2023-02-15T11:03:33.101Z,0.36
2023-02-15T11:06:05.274Z,0.32
2023-02-15T11:08:38.838Z,0.32
2023-02-15T11:11:10.293Z,0.31
2023-02-15T11:13:42.898Z,0.32
2023-02-15T11:16:26.597Z,0.32
2023-02-15T11:19:00.116Z,0.30
2023-02-15T11:21:29.064Z,0.27
2023-02-15T11:23:56.152Z,0.24
2023-02-15T11:26:33.732Z,0.25
2023-02-15T11:29:06.854Z,0.31
2023-02-15T11:31:45.758Z,0.39
2023-02-15T11:34:34.995Z,0.46
2023-02-15T11:37:05.908Z,0.51
2023-02-15T12:25:55.152Z,0.75
2023-02-15T12:28:33.327Z,0.78
2023-02-15T12:31:02.434Z,0.75
2023-02-15T12:33:33.982Z,0.72
2023-02-15T12:36:03.085Z,0.66
2023-02-15T12:38:32.182Z,0.58
2023-02-15T12:41:04.708Z,0.48
2023-02-15T12:43:38.181Z,0.41
2023-02-15T12:46:26.478Z,0.33
2023-02-15T12:49:11.160Z,0.24
2023-02-15T12:51:49.613Z,0.14
2023-02-15T12:54:32.435Z,0.08
2023-02-15T12:56:59.889Z,0.04
2023-02-15T12:59:27.255Z,0.01
2023-02-15T13:01:54.755Z,-0.02
2023-02-15T13:04:29.314Z,-0.05
2023-02-15T13:06:59.022Z,-0.06
2023-02-15T13:09:33.196Z,-0.08
2023-02-15T13:12:32.587Z,-0.10
2023-02-15T13:15:03.652Z,-0.13
2023-02-15T13:17:32.471Z,-0.15
2023-02-15T13:20:04.054Z,-0.15
2023-02-15T13:23:06.287Z,-0.15
2023-02-15T13:25:40.779Z,-0.16
2023-02-15T13:28:09.032Z,-0.20
2023-02-15T13:30:42.057Z,-0.24
2023-02-15T13:33:31.407Z,-0.29
2023-02-15T13:36:18.653Z,-0.33
2023-02-15T13:38:53.866Z,-0.35
2023-02-15T13:41:35.607Z,-0.38
2023-02-15T13:44:03.758Z,-0.41
2023-02-15T13:46:34.708Z,-0.43
2023-02-15T13:49:24.798Z,-0.45
2023-02-15T13:52:24.319Z,-0.47
2023-02-15T13:55:16.956Z,-0.51
2023-02-15T13:57:56.724Z,-0.54
2023-02-15T14:00:49.958Z,-0.57
2023-02-15T14:03:37.914Z,-0.60
2023-02-15T14:06:05.734Z,-0.64
2023-02-15T14:08:52.554Z,-0.66
2023-02-15T14:11:25.211Z,-0.68
2023-02-15T14:13:59.056Z,-0.70
2023-02-15T14:16:34.020Z,-0.72
2023-02-15T14:19:06.470Z,-0.74
2023-02-15T14:21:50.394Z,-0.77
2023-02-15T14:24:49.645Z,-0.81
2023-02-15T14:27:44.740Z,-0.85
2023-02-15T14:30:19.962Z,-0.88
2023-02-15T14:32:54.344Z,-0.90
2023-02-15T14:35:24.629Z,-0.92
2023-02-15T14:37:57.869Z,-0.95
2023-02-15T14:41:03.577Z,-0.97
2023-02-15T14:43:56.029Z,-1.00
2023-02-15T14:46:39.734Z,-1.02
2023-02-15T14:49:13.546Z,-1.04
2023-02-15T14:51:44.014Z,-1.08
2023-02-15T14:54:17.980Z,-1.09
2023-02-15T14:56:45.931Z,-1.11
2023-02-15T14:59:19.237Z,-1.11
2023-02-15T15:01:59.828Z,-1.11
2023-02-15T15:04:48.408Z,-1.13
2023-02-15T15:07:25.977Z,-1.16
2023-02-15T15:10:16.393Z,-1.19
2023-02-15T15:12:54.315Z,-1.24
2023-02-15T15:15:27.287Z,-1.27
2023-02-15T15:18:09.024Z,-1.33
2023-02-15T15:20:45.792Z,-1.39
2023-02-15T15:23:16.172Z,-1.44
2023-02-15T15:25:49.486Z,-1.48
2023-02-15T15:28:35.522Z,-1.52
2023-02-15T15:31:08.802Z,-1.58
2023-02-15T15:33:55.083Z,-1.64
2023-02-15T15:36:48.219Z,-1.68
2023-02-15T15:39:35.233Z,-1.70
2023-02-15T15:42:29.209Z,-1.70
2023-02-15T15:45:24.018Z,-1.69
2023-02-15T15:48:13.595Z,-1.69
2023-02-15T15:50:41.461Z,-1.69
2023-02-15T15:53:21.796Z,-1.69
2023-02-15T15:55:50.083Z,-1.69
2023-02-15T15:58:17.984Z,-1.69
2023-02-15T16:01:07.961Z,-1.69
2023-02-15T16:03:35.595Z,-1.68
2023-02-15T16:06:03.352Z,-1.68
2023-02-15T16:08:41.163Z,-1.67
2023-02-15T16:11:26.230Z,-1.66
2023-02-15T16:13:53.554Z,-1.66
2023-02-15T16:16:29.511Z,-1.67
2023-02-15T16:18:58.441Z,-1.68
2023-02-15T16:21:33.968Z,-1.68
2023-02-15T16:24:14.418Z,-1.69
2023-02-15T16:26:42.237Z,-1.70
2023-02-15T16:29:18.198Z,-1.70
2023-02-15T16:32:02.778Z,-1.72
2023-02-15T16:34:32.910Z,-1.74
2023-02-15T16:37:16.544Z,-1.75
2023-02-15T16:39:44.553Z,-1.76
2023-02-15T16:42:17.619Z,-1.78
2023-02-15T16:44:46.734Z,-1.79
2023-02-15T16:47:32.250Z,-1.81
2023-02-15T16:50:01.000Z,-1.83
2023-02-15T16:52:28.125Z,-1.85
2023-02-15T16:55:00.093Z,-1.88
2023-02-15T16:57:31.435Z,-1.92
2023-02-15T17:00:05.569Z,-1.96
2023-02-15T17:02:54.412Z,-2.00
2023-02-15T17:05:21.446Z,-2.02
2023-02-15T17:08:11.868Z,-2.05
2023-02-15T17:10:42.295Z,-2.09
2023-02-15T17:13:13.027Z,-2.13
2023-02-15T17:15:44.699Z,-2.17
2023-02-15T17:18:15.013Z,-2.19
2023-02-15T17:20:42.872Z,-2.22
2023-02-15T17:23:36.542Z,-2.24
2023-02-15T17:26:21.815Z,-2.28
2023-02-15T17:28:54.418Z,-2.31
2023-02-15T17:31:21.891Z,-2.34
2023-02-15T17:33:50.133Z,-2.37
2023-02-15T17:36:23.012Z,-2.40
2023-02-15T17:39:03.185Z,-2.44
2023-02-15T17:41:34.585Z,-2.47
2023-02-15T17:44:03.314Z,-2.50
2023-02-15T17:46:35.240Z,-2.53
2023-02-15T17:49:02.727Z,-2.54
2023-02-15T17:51:31.511Z,-2.57
2023-02-15T17:54:17.604Z,-2.60
2023-02-15T17:56:44.961Z,-2.62
2023-02-15T17:59:13.753Z,-2.64
2023-02-15T18:02:05.891Z,-2.65
2023-02-15T18:04:52.188Z,-2.67
2023-02-15T18:07:40.948Z,-2.69
2023-02-15T18:10:36.922Z,-2.73
2023-02-15T18:13:04.415Z,-2.76
2023-02-15T18:15:31.820Z,-2.77
2023-02-15T18:18:00.926Z,-2.78
2023-02-15T18:20:36.301Z,-2.80
2023-02-15T18:23:05.539Z,-2.81
2023-02-15T18:25:32.874Z,-2.83
2023-02-15T18:28:00.128Z,-2.84
2023-02-15T18:30:28.391Z,-2.85
2023-02-15T18:32:56.748Z,-2.85
2023-02-15T18:35:26.179Z,-2.86
2023-02-15T18:37:53.835Z,-2.87
2023-02-15T18:40:22.731Z,-2.89
2023-02-15T18:42:50.100Z,-2.91
2023-02-15T18:45:27.126Z,-2.94
2023-02-15T18:47:57.692Z,-2.97
2023-02-15T18:50:27.109Z,-2.99
2023-02-15T18:52:54.451Z,-3.01
2023-02-15T18:55:28.261Z,-3.03
2023-02-15T18:57:56.744Z,-3.06
2023-02-15T19:00:28.920Z,-3.08
2023-02-15T19:02:56.780Z,-3.10
2023-02-15T19:05:24.437Z,-3.11
2023-02-15T19:07:52.689Z,-3.12
2023-02-15T19:10:21.333Z,-3.11
2023-02-15T19:12:48.855Z,-3.11
2023-02-15T19:15:26.894Z,-3.12
2023-02-15T19:17:54.164Z,-3.12
2023-02-15T19:20:39.288Z,-3.14
2023-02-15T19:23:08.336Z,-3.16
2023-02-15T19:25:37.667Z,-3.19
2023-02-15T19:28:27.822Z,-3.21
2023-02-15T19:30:54.958Z,-3.24
2023-02-15T19:33:23.360Z,-3.29
2023-02-15T19:35:53.801Z,-3.33
2023-02-15T19:38:33.131Z,-3.37
2023-02-15T19:41:01.646Z,-3.42
2023-02-15T19:43:29.790Z,-3.45
2023-02-15T19:45:57.157Z,-3.48
2023-02-15T19:48:24.404Z,-3.51
2023-02-15T19:50:56.645Z,-3.54
2023-02-15T19:53:25.604Z,-3.57
2023-02-15T19:55:53.359Z,-3.61
2023-02-15T19:58:21.424Z,-3.66
2023-02-15T20:00:49.607Z,-3.70
2023-02-15T20:03:17.730Z,-3.74
2023-02-15T20:05:45.616Z,-3.78
2023-02-15T20:08:18.529Z,-3.83
2023-02-15T20:10:46.453Z,-3.87
2023-02-15T20:13:16.694Z,-3.90
2023-02-15T20:15:44.302Z,-3.90
2023-02-15T20:18:11.476Z,-3.92
2023-02-15T20:20:45.376Z,-3.94
2023-02-15T20:23:22.645Z,-3.94
2023-02-15T20:25:50.142Z,-3.93
2023-02-15T20:28:23.133Z,-3.95
2023-02-15T20:30:51.281Z,-3.98
2023-02-15T20:33:19.198Z,-3.99
2023-02-15T20:35:46.259Z,-4.01
2023-02-15T20:38:18.999Z,-4.01
2023-02-15T20:41:06.426Z,-4.03
2023-02-15T20:43:33.701Z,-4.05
2023-02-15T20:46:02.007Z,-4.08
2023-02-15T20:48:30.571Z,-4.10
2023-02-15T20:50:58.141Z,-4.11
2023-02-15T20:53:26.127Z,-4.12
2023-02-15T20:55:53.562Z,-4.12
2023-02-15T20:58:26.500Z,-4.11
2023-02-15T21:00:54.418Z,-4.11
2023-02-15T21:03:24.114Z,-4.12
2023-02-15T21:05:51.270Z,-4.13
2023-02-15T21:08:20.713Z,-4.14
2023-02-15T21:10:50.828Z,-4.12
2023-02-15T21:13:36.024Z,-4.11
2023-02-15T21:16:03.600Z,-4.13
2023-02-15T21:18:32.881Z,-4.15
2023-02-15T21:21:02.089Z,-4.17
2023-02-15T21:23:38.258Z,-4.20
2023-02-15T21:26:07.162Z,-4.23
2023-02-15T21:28:35.135Z,-4.24
2023-02-15T21:31:02.967Z,-4.24
2023-02-15T21:33:31.026Z,-4.22
2023-02-15T21:35:58.599Z,-4.21
2023-02-15T21:38:28.141Z,-4.17
2023-02-15T21:41:16.401Z,-4.14
2023-02-15T21:44:02.518Z,-4.10
2023-02-15T21:46:49.776Z,-4.06
2023-02-15T21:49:16.859Z,-4.03
2023-02-15T21:52:02.805Z,-3.99
2023-02-15T21:54:29.826Z,-3.95
2023-02-15T21:56:57.274Z,-3.92
2023-02-15T21:59:24.927Z,-3.88
2023-02-15T22:01:52.251Z,-3.85
2023-02-15T22:04:25.289Z,-3.81
2023-02-15T22:06:52.479Z,-3.78
2023-02-15T22:09:21.978Z,-3.76
2023-02-15T22:11:51.022Z,-3.75
2023-02-15T22:14:35.291Z,-3.74
2023-02-15T22:17:17.771Z,-3.72
2023-02-15T22:19:45.811Z,-3.70
2023-02-15T22:22:13.930Z,-3.68
2023-02-15T22:24:42.778Z,-3.66
2023-02-15T22:27:25.264Z,-3.62
2023-02-15T22:29:52.512Z,-3.58
2023-02-15T22:32:21.604Z,-3.54
2023-02-15T22:34:49.194Z,-3.50
2023-02-15T22:37:16.838Z,-3.47
2023-02-15T22:39:43.912Z,-3.44
2023-02-15T22:42:27.583Z,-3.42
2023-02-15T22:44:55.331Z,-3.40
2023-02-15T22:47:27.553Z,-3.40
2023-02-15T22:49:54.970Z,-3.41
2023-02-15T22:52:24.155Z,-3.41
2023-02-15T22:54:51.193Z,-3.41
2023-02-15T22:57:22.360Z,-3.41
2023-02-15T22:59:50.084Z,-3.41
2023-02-15T23:02:17.209Z,-3.41
2023-02-15T23:04:44.691Z,-3.40
2023-02-15T23:07:18.847Z,-3.39
2023-02-15T23:09:46.499Z,-3.38
2023-02-15T23:12:59.905Z,-3.37
2023-02-15T23:15:27.292Z,-3.36
2023-02-15T23:17:54.538Z,-3.34
2023-02-15T23:20:21.567Z,-3.32
2023-02-15T23:22:49.477Z,-3.32
2023-02-15T23:25:21.350Z,-3.31
2023-02-15T23:27:57.738Z,-3.31
2023-02-15T23:30:25.198Z,-3.33
2023-02-15T23:32:53.084Z,-3.35
2023-02-15T23:35:20.104Z,-3.37
2023-02-15T23:37:47.615Z,-3.38
2023-02-15T23:40:34.860Z,-3.38
2023-02-15T23:43:02.293Z,-3.40
2023-02-15T23:45:29.628Z,-3.41
2023-02-15T23:48:15.677Z,-3.42
2023-02-15T23:50:43.588Z,-3.43
2023-02-15T23:53:10.657Z,-3.45
2023-02-15T23:55:38.847Z,-3.45
2023-02-15T23:58:09.507Z,-3.45
